| time (UTC) | temp F | wind direction | speed knots | gust knots | rain 1hr in | rain 24hr in | rain mn in | humidity % | barometer mb |
| 20260507154507 | 60 | 360 | 0.0 | 4.3 | 0.00 | 0.00 | 0.00 | 40 | 1009.2 |
| 20260507153005 | 59 | 360 | 0.9 | 12.2 | 0.00 | 0.00 | 0.00 | 40 | 1009.5 |
| 20260507151502 | 59 | 360 | 0.9 | 16.5 | 0.00 | 0.00 | 0.00 | 39 | 1009.5 |
| 20260507150059 | 58 | 360 | 0.0 | 11.3 | 0.00 | 0.00 | 0.00 | 41 | 1009.5 |
| 20260507144608 | 57 | 360 | 0.9 | 11.3 | 0.00 | 0.00 | 0.00 | 43 | 1009.5 |
| 20260507143101 | 57 | 360 | 2.6 | 8.7 | 0.00 | 0.00 | 0.00 | 42 | 1009.6 |
| 20260507141600 | 57 | 360 | 4.3 | 15.6 | 0.00 | 0.00 | 0.00 | 41 | 1009.3 |
| 20260507140050 | 56 | 360 | 2.6 | 13.0 | 0.00 | 0.00 | 0.00 | 42 | 1009.3 |
| 20260507134552 | 55 | 360 | 1.7 | 14.8 | 0.00 | 0.00 | 0.00 | 43 | 1009.4 |
| 20260507133116 | 54 | 360 | 6.1 | 16.5 | 0.00 | 0.00 | 0.00 | 43 | 1009.3 |
| 20260507131545 | 53 | 360 | 2.6 | 14.8 | 0.00 | 0.00 | 0.00 | 44 | 1009.3 |
| 20260507130053 | 52 | 360 | 3.5 | 13.9 | 0.00 | 0.00 | 0.00 | 45 | 1009.2 |
| 20260507124542 | 53 | 360 | 6.1 | 17.4 | 0.00 | 0.00 | 0.00 | 43 | 1009.2 |
| 20260507123041 | 53 | 360 | 6.1 | 22.6 | 0.00 | 0.00 | 0.00 | 42 | 1008.8 |
| 20260507121535 | 52 | 360 | 4.3 | 17.4 | 0.00 | 0.00 | 0.00 | 43 | 1008.7 |
| 20260507120035 | 50 | 360 | 4.3 | 16.5 | 0.00 | 0.00 | 0.00 | 46 | 1008.8 |
| 20260507114528 | 49 | 360 | 3.5 | 16.5 | 0.00 | 0.00 | 0.00 | 47 | 1008.9 |
| 20260507113033 | 49 | 360 | 0.9 | 18.2 | 0.00 | 0.00 | 0.00 | 48 | 1008.9 |
| 20260507111526 | 48 | 360 | 2.6 | 12.2 | 0.00 | 0.00 | 0.00 | 49 | 1008.8 |
| 20260507110036 | 47 | 360 | 5.2 | 13.0 | 0.00 | 0.00 | 0.00 | 50 | 1008.9 |
| 20260507104528 | 48 | 360 | 5.2 | 13.0 | 0.00 | 0.00 | 0.00 | 48 | 1009.0 |
| 20260507103028 | 50 | 360 | 5.2 | 13.0 | 0.00 | 0.00 | 0.00 | 45 | 1009.0 |
| 20260507101532 | 51 | 360 | 6.1 | 19.1 | 0.00 | 0.00 | 0.00 | 42 | 1009.1 |
| 20260507100023 | 53 | 360 | 4.3 | 18.2 | 0.00 | 0.00 | 0.00 | 40 | 1009.1 |
| 20260507094523 | 53 | 360 | 7.0 | 18.2 | 0.00 | 0.00 | 0.00 | 39 | 1009.1 |
| 20260507093020 | 54 | 360 | 14.8 | 23.5 | 0.00 | 0.00 | 0.00 | 38 | 1009.1 |
| 20260507091523 | 54 | 360 | 6.1 | 20.0 | 0.00 | 0.00 | 0.00 | 38 | 1009.2 |
| 20260507090015 | 54 | 360 | 5.2 | 19.1 | 0.00 | 0.00 | 0.00 | 37 | 1009.4 |
| 20260507084513 | 54 | 360 | 3.5 | 14.8 | 0.00 | 0.00 | 0.00 | 37 | 1009.5 |
| 20260507083010 | 53 | 360 | 5.2 | 19.1 | 0.00 | 0.00 | 0.00 | 38 | 1009.7 |
| 20260507081508 | 52 | 360 | 3.5 | 16.5 | 0.00 | 0.00 | 0.00 | 40 | 1009.9 |
| 20260507080006 | 51 | 360 | 3.5 | 13.0 | 0.00 | 0.00 | 0.00 | 41 | 1010.1 |
| 20260507074504 | 50 | 360 | 4.3 | 14.8 | 0.00 | 0.00 | 0.00 | 42 | 1010.4 |
| 20260507073002 | 52 | 360 | 1.7 | 14.8 | 0.00 | 0.00 | 0.00 | 40 | 1010.8 |
| 20260507071600 | 53 | 360 | 1.7 | 16.5 | 0.00 | 0.00 | 0.00 | 37 | 1010.8 |
| 20260507070105 | 52 | 360 | 3.5 | 15.6 | 0.00 | 0.00 | 0.00 | 38 | 1010.9 |
| 20260507064558 | 51 | 360 | 9.6 | 18.2 | 0.00 | 0.00 | 0.00 | 40 | 1011.1 |
| 20260507063049 | 48 | 360 | 6.1 | 15.6 | 0.00 | 0.00 | 0.00 | 43 | 1011.3 |
| 20260507061545 | 46 | 360 | 6.1 | 16.5 | 0.00 | 0.00 | 0.00 | 50 | 1011.4 |
| 20260507060053 | 45 | 360 | 7.0 | 18.2 | 0.00 | 0.00 | 0.00 | 54 | 1011.3 |
| 20260507054540 | 45 | 360 | 4.3 | 18.2 | 0.00 | 0.00 | 0.00 | 56 | 1011.6 |
| 20260507053040 | 44 | 360 | 10.4 | 15.6 | 0.00 | 0.00 | 0.00 | 57 | 1011.5 |
| 20260507051537 | 44 | 360 | 4.3 | 13.0 | 0.00 | 0.00 | 0.00 | 58 | 1011.9 |
| 20260507050038 | 45 | 360 | 0.9 | 11.3 | 0.00 | 0.00 | 0.00 | 57 | 1012.0 |
| 20260507044547 | 44 | 360 | 7.8 | 13.0 | 0.00 | 0.00 | 0.00 | 58 | 1012.1 |
| 20260507043034 | 43 | 360 | 3.5 | 12.2 | 0.00 | 0.00 | 0.00 | 61 | 1012.1 |
| 20260507041533 | 43 | 360 | 6.1 | 13.9 | 0.00 | 0.00 | 0.00 | 61 | 1012.2 |
| 20260507040041 | 44 | 360 | 3.5 | 11.3 | 0.00 | 0.00 | 0.00 | 61 | 1012.3 |
| 20260507034540 | 44 | 360 | 0.0 | 7.8 | 0.00 | 0.00 | 0.00 | 60 | 1012.5 |
| 20260507033043 | 44 | 360 | 1.7 | 7.8 | 0.00 | 0.00 | 0.00 | 59 | 1012.6 |
| 20260507031544 | 45 | 360 | 2.6 | 8.7 | 0.00 | 0.00 | 0.00 | 58 | 1012.8 |
| 20260507030030 | 45 | 360 | 0.0 | 0.9 | 0.00 | 0.00 | 0.00 | 56 | 1012.9 |
| 20260507024527 | 46 | 360 | 1.7 | 7.8 | 0.00 | 0.00 | 0.00 | 54 | 1012.9 |
| 20260507023025 | 48 | 360 | 0.9 | 10.4 | 0.00 | 0.00 | 0.00 | 51 | 1013.1 |
| 20260507021525 | 49 | 360 | 2.6 | 10.4 | 0.00 | 0.00 | 0.00 | 48 | 1013.2 |
| 20260507020025 | 51 | 360 | 2.6 | 10.4 | 0.00 | 0.00 | 0.00 | 42 | 1013.1 |
| 20260507014525 | 54 | 360 | 0.0 | 0.0 | 0.00 | 0.00 | 0.00 | 33 | 1013.0 |
| 20260507013121 | 55 | 360 | 0.0 | 0.0 | 0.00 | 0.00 | 0.00 | 30 | 1013.2 |
| 20260507011530 | 56 | 360 | 0.0 | 0.0 | 0.00 | 0.00 | 0.00 | 29 | 1013.4 |
| 20260507010020 | 56 | 360 | 0.0 | 2.6 | 0.00 | 0.00 | 0.00 | 28 | 1013.5 |
| 20260507004517 | 56 | 360 | 0.0 | 13.0 | 0.00 | 0.02 | 0.00 | 27 | 1013.7 |
| 20260507003015 | 56 | 360 | 0.0 | 11.3 | 0.00 | 0.02 | 0.00 | 28 | 1013.8 |
| 20260507001519 | 56 | 360 | 0.0 | 7.0 | 0.00 | 0.02 | 0.00 | 28 | 1013.9 |
| 20260507000013 | 56 | 360 | 0.0 | 13.0 | 0.00 | 0.02 | 0.00 | 28 | 1014.1 |
| 20260506234511 | 56 | 360 | 3.5 | 15.6 | 0.00 | 0.04 | 0.00 | 28 | 1014.2 |
| 20260506233010 | 56 | 360 | 1.7 | 10.4 | 0.00 | 0.04 | 0.00 | 28 | 1014.3 |
| 20260506231509 | 56 | 360 | 2.6 | 13.9 | 0.00 | 0.04 | 0.00 | 29 | 1014.7 |
| 20260506230007 | 56 | 360 | 2.6 | 11.3 | 0.00 | 0.04 | 0.00 | 29 | 1014.7 |
| 20260506224504 | 55 | 360 | 0.9 | 13.0 | 0.00 | 0.04 | 0.00 | 31 | 1014.9 |
| 20260506223003 | 55 | 360 | 0.0 | 8.7 | 0.00 | 0.04 | 0.00 | 31 | 1015.3 |
| 20260506221600 | 55 | 360 | 0.0 | 17.4 | 0.00 | 0.04 | 0.00 | 31 | 1015.5 |
| 20260506214558 | 56 | 360 | 1.7 | 14.8 | 0.00 | 0.04 | 0.00 | 30 | 1016.0 |
| 20260506213053 | 55 | 360 | 3.5 | 11.3 | 0.00 | 0.04 | 0.00 | 29 | 1016.3 |
| 20260506211551 | 55 | 360 | 0.9 | 13.9 | 0.00 | 0.04 | 0.00 | 30 | 1016.6 |
| 20260506210048 | 53 | 360 | 0.0 | 13.9 | 0.00 | 0.04 | 0.00 | 31 | 1016.9 |
| 20260506204548 | 54 | 360 | 3.5 | 13.0 | 0.00 | 0.04 | 0.00 | 30 | 1017.1 |
| 20260506203045 | 54 | 360 | 0.0 | 11.3 | 0.00 | 0.04 | 0.00 | 31 | 1017.3 |
| 20260506201544 | 55 | 360 | 0.9 | 13.0 | 0.00 | 0.04 | 0.00 | 30 | 1017.5 |
| 20260506200042 | 52 | 360 | 0.9 | 16.5 | 0.00 | 0.04 | 0.00 | 32 | 1017.7 |
| 20260506194539 | 52 | 360 | 3.5 | 12.2 | 0.00 | 0.06 | 0.00 | 32 | 1018.1 |
| 20260506193036 | 51 | 360 | 0.9 | 13.0 | 0.00 | 0.06 | 0.00 | 36 | 1018.2 |
| 20260506191535 | 51 | 360 | 2.6 | 11.3 | 0.00 | 0.06 | 0.00 | 37 | 1018.4 |
| 20260506190038 | 50 | 360 | 1.7 | 9.6 | 0.00 | 0.06 | 0.00 | 35 | 1018.7 |
| 20260506184536 | 50 | 360 | 0.9 | 13.0 | 0.00 | 0.09 | 0.00 | 35 | 1018.8 |
| 20260506183027 | 49 | 360 | 0.0 | 15.6 | 0.00 | 0.09 | 0.00 | 36 | 1019.0 |
| 20260506181525 | 48 | 360 | 0.9 | 8.7 | 0.00 | 0.09 | 0.00 | 40 | 1019.3 |
| 20260506180027 | 48 | 360 | 0.9 | 13.0 | 0.00 | 0.09 | 0.00 | 40 | 1019.4 |
| 20260506174522 | 48 | 360 | 0.9 | 11.3 | 0.00 | 0.09 | 0.00 | 42 | 1019.7 |
| 20260506173020 | 47 | 360 | 2.6 | 13.9 | 0.00 | 0.09 | 0.00 | 41 | 1019.7 |
| 20260506171516 | 47 | 360 | 0.9 | 11.3 | 0.00 | 0.09 | 0.00 | 42 | 1019.7 |
| 20260506170013 | 46 | 360 | 0.0 | 7.8 | 0.00 | 0.09 | 0.00 | 43 | 1019.9 |
| 20260506164511 | 45 | 360 | 1.7 | 8.7 | 0.00 | 0.09 | 0.00 | 43 | 1020.0 |
| 20260506163016 | 44 | 360 | 0.9 | 11.3 | 0.00 | 0.09 | 0.00 | 48 | 1020.0 |
| 20260506161506 | 43 | 360 | 0.0 | 12.2 | 0.00 | 0.09 | 0.00 | 49 | 1020.0 |
| 20260506160006 | 43 | 360 | 0.0 | 7.8 | 0.00 | 0.09 | 0.00 | 45 | 1019.9 |